Terminal Aerodrome Forecast
Issued by NWS Charleston, WV

Current Version | Previous Version | Text Only | Print | Product List | Glossary Off
Versions: 1 2 3 4 5 6 7 8 9 10 11 12 13 14 15 16 17 18 19 20 21 22

343
FTUS41 KRLX 180930 AAA
TAFCRW
TAF AMD
KCRW 180930Z 1810/1906 16003KT P6SM SCT180 WS003/18018KT
     FM181100 19010KT P6SM OVC120
     FM181500 20011G18KT P6SM OVC045
     FM182100 21017G26KT P6SM OVC045
     FM182300 20015G26KT 6SM -SHRA OVC045
     FM190200 22014G24KT 5SM SHRA OVC025=

USA.gov is the U.S. government's official web portal to all federal, state and local government web resources and services.